Time;durP1;ratioP1;P1;durP2;ratioP2;P2;SDS_P1;SDS_P2;PMS_P1;PMS_P2;Temp;Humidity;BMP_temperature;BMP_pressure;BME280_temperature;BME280_humidity;BME280_pressure;Samples;Min_cycle;Max_cycle;Signal;HPM_P1;HPM_P2
2022/04/22 00:00:15;;;;;;;;;34.50;30.00;;;25.99;97265.44;;;;116763;1196;25286;-56
2022/04/22 00:03:02;;;;;;;;;23.00;21.67;;;26.02;97264.70;;;;116787;1196;25501;-56
2022/04/22 00:05:30;;;;;;;;;32.67;29.33;;;26.05;97260.83;;;;116773;1196;25130;-55
2022/04/22 00:07:58;;;;;;;;;31.00;27.67;;;26.03;97264.41;;;;116733;1197;25114;-56
2022/04/22 00:10:26;;;;;;;;;34.00;29.00;;;26.02;97262.16;;;;116788;1196;25703;-56
2022/04/22 00:12:54;;;;;;;;;32.00;30.00;;;26.00;97258.41;;;;116799;1197;26569;-56
2022/04/22 00:15:23;;;;;;;;;29.00;28.00;;;25.98;97254.71;;;;116789;1196;25469;-56
2022/04/22 00:17:50;;;;;;;;;34.00;30.50;;;25.95;97255.77;;;;116772;1196;25619;-57
2022/04/22 00:20:18;;;;;;;;;26.00;25.00;;;25.93;97259.84;;;;116760;1197;24797;-55
2022/04/22 00:22:46;;;;;;;;;31.00;29.33;;;25.92;97257.02;;;;116749;1198;24924;-57
2022/04/22 00:25:14;;;;;;;;;24.00;24.00;;;25.90;97253.04;;;;116807;1197;25732;-56
2022/04/22 00:27:42;;;;;;;;;30.00;28.00;;;25.88;97253.02;;;;116794;1197;25784;-57
2022/04/22 00:30:11;;;;;;;;;25.50;25.50;;;25.91;97253.83;;;;116709;1196;25394;-56
2022/04/22 00:32:40;;;;;;;;;30.33;26.67;;;25.87;97255.82;;;;116852;1197;25676;-57
2022/04/22 00:35:08;;;;;;;;;31.00;26.33;;;25.88;97250.21;;;;116771;1196;24890;-57
2022/04/22 00:37:36;;;;;;;;;33.50;32.00;;;25.88;97250.06;;;;116809;1197;25966;-57
2022/04/22 00:40:05;;;;;;;;;30.33;27.67;;;25.88;97250.27;;;;116766;1197;25084;-57
2022/04/22 00:42:33;;;;;;;;;28.50;24.00;;;25.87;97246.47;;;;116823;1197;25437;-55
2022/04/22 00:45:01;;;;;;;;;31.00;26.00;;;25.86;97248.39;;;;116747;1196;25576;-56
2022/04/22 00:47:29;;;;;;;;;24.33;24.33;;;25.84;97248.48;;;;116749;1196;25097;-56
2022/04/22 00:49:57;;;;;;;;;28.50;24.50;;;25.82;97245.14;;;;116707;1196;24948;-57
2022/04/22 00:52:24;;;;;;;;;25.00;25.00;;;25.79;97239.31;;;;116782;1197;24994;-56
2022/04/22 00:54:52;;;;;;;;;33.00;26.00;;;25.78;97238.73;;;;116815;1197;25448;-56
2022/04/22 00:57:20;;;;;;;;;25.00;23.00;;;25.77;97235.94;;;;116706;1198;24977;-58
2022/04/22 00:59:48;;;;;;;;;29.33;24.00;;;25.77;97236.20;;;;116725;1198;25625;-55
2022/04/22 01:02:16;;;;;;;;;30.33;28.00;;;25.76;97235.44;;;;116826;1197;25493;-56
2022/04/22 01:10:16;;;;;;;;;24.00;24.00;;;25.74;97226.09;;;;116785;1196;25717;-57
2022/04/22 01:12:44;;;;;;;;;29.33;27.00;;;25.73;97226.84;;;;116695;1197;24719;-56
2022/04/22 01:15:12;;;;;;;;;23.50;23.50;;;25.69;97222.11;;;;116822;1198;25293;-57
2022/04/22 01:17:40;;;;;;;;;32.67;28.00;;;25.72;97221.02;;;;116747;1196;24893;-57
2022/04/22 01:20:08;;;;;;;;;33.00;27.67;;;25.69;97218.36;;;;116766;1197;25470;-56
2022/04/22 01:22:36;;;;;;;;;29.50;29.00;;;25.69;97214.49;;;;116801;1197;25716;-57
2022/04/22 01:25:04;;;;;;;;;26.50;26.50;;;25.69;97215.27;;;;116738;1198;25244;-56
2022/04/22 01:27:33;;;;;;;;;29.67;27.67;;;25.66;97209.20;;;;116791;1196;25203;-56
2022/04/22 01:30:03;;;;;;;;;26.00;25.00;;;25.68;97210.33;;;;116705;1196;25503;-56
2022/04/22 01:32:30;;;;;;;;;25.00;22.00;;;25.68;97207.73;;;;116788;1197;25050;-57
2022/04/22 01:34:59;;;;;;;;;24.50;24.00;;;25.66;97207.94;;;;116764;1196;24988;-57
2022/04/22 01:37:27;;;;;;;;;26.00;26.00;;;25.65;97207.47;;;;116714;1196;25460;-56
2022/04/22 01:39:54;;;;;;;;;25.00;25.00;;;25.62;97203.25;;;;116745;1197;25612;-56
2022/04/22 01:42:22;;;;;;;;;28.33;24.33;;;25.62;97205.79;;;;116729;1196;25359;-57
2022/04/22 01:44:50;;;;;;;;;25.00;22.00;;;25.60;97200.16;;;;116780;1196;24846;-56
2022/04/22 01:47:19;;;;;;;;;26.67;26.67;;;25.59;97203.08;;;;116681;1197;25970;-57
2022/04/22 01:49:47;;;;;;;;;28.33;26.00;;;25.59;97200.02;;;;116559;1196;24796;-56
2022/04/22 01:52:15;;;;;;;;;27.33;27.00;;;25.59;97197.40;;;;116620;1197;25851;-56
2022/04/22 01:54:43;;;;;;;;;30.67;26.33;;;25.61;97194.07;;;;116799;1197;25028;-57
2022/04/22 01:57:11;;;;;;;;;30.00;28.00;;;25.65;97197.20;;;;116782;1196;25821;-56
2022/04/22 01:59:40;;;;;;;;;28.50;24.50;;;25.62;97189.61;;;;116628;1197;25456;-56
2022/04/22 02:02:08;;;;;;;;;29.00;26.50;;;25.61;97189.52;;;;116548;1196;25045;-55
2022/04/22 02:04:36;;;;;;;;;22.00;22.00;;;25.58;97186.13;;;;116729;1196;24973;-56
2022/04/22 02:07:05;;;;;;;;;23.67;21.67;;;25.60;97177.14;;;;116557;1196;24810;-57
2022/04/22 02:09:33;;;;;;;;;27.00;25.67;;;25.58;97179.63;;;;116528;1198;25260;-56
2022/04/22 02:12:01;;;;;;;;;26.50;25.50;;;25.57;97177.67;;;;116324;1199;25678;-56
2022/04/22 02:14:29;;;;;;;;;32.67;27.00;;;25.53;97169.52;;;;116522;1197;25020;-56
2022/04/22 02:16:57;;;;;;;;;35.50;28.00;;;25.56;97167.34;;;;116473;1197;24822;-57
2022/04/22 02:19:30;;;;;;;;;27.00;22.67;;;25.54;97168.35;;;;116818;1196;25719;-56
2022/04/22 02:21:58;;;;;;;;;29.67;26.67;;;25.57;97174.25;;;;116731;1196;26533;-56
2022/04/22 02:24:26;;;;;;;;;26.67;24.67;;;25.55;97168.05;;;;116722;1197;25037;-57
2022/04/22 02:29:40;;;;;;;;;25.33;25.33;;;25.54;97158.64;;;;116785;1197;25599;-56
2022/04/22 02:32:08;;;;;;;;;36.67;31.00;;;25.51;97149.45;;;;116710;1197;25817;-57
2022/04/22 02:34:36;;;;;;;;;28.50;27.00;;;25.49;97146.46;;;;116839;1198;25035;-56
2022/04/22 02:37:05;;;;;;;;;26.00;24.33;;;25.50;97141.66;;;;116761;1197;24978;-56
2022/04/22 02:39:33;;;;;;;;;25.00;25.00;;;25.48;97139.19;;;;116783;1196;25222;-58
2022/04/22 02:47:34;;;;;;;;;29.00;27.00;;;25.47;97143.63;;;;116857;1197;25250;-55
2022/04/22 02:50:02;;;;;;;;;22.00;22.00;;;25.49;97136.98;;;;116461;1197;25070;-56
2022/04/22 02:52:30;;;;;;;;;28.00;24.67;;;25.47;97138.20;;;;116770;1197;24760;-57
2022/04/22 02:54:58;;;;;;;;;26.00;25.00;;;25.47;97142.73;;;;116459;1198;24763;-56
2022/04/22 02:57:26;;;;;;;;;29.00;26.67;;;25.46;97144.50;;;;116759;1198;25592;-57
2022/04/22 02:59:54;;;;;;;;;22.50;21.00;;;25.44;97148.41;;;;116705;1196;25280;-56
2022/04/22 03:02:22;;;;;;;;;25.67;23.33;;;25.43;97153.26;;;;116425;1198;25263;-57
2022/04/22 03:04:50;;;;;;;;;25.50;24.50;;;25.42;97159.13;;;;116377;1199;25317;-57
2022/04/22 03:07:18;;;;;;;;;27.67;23.67;;;25.41;97176.80;;;;116555;1198;25889;-55
2022/04/22 03:09:46;;;;;;;;;29.67;27.33;;;25.41;97174.02;;;;116748;1196;25326;-56
2022/04/22 03:12:14;;;;;;;;;28.33;26.33;;;25.41;97183.20;;;;116720;1197;25876;-58
2022/04/22 03:14:44;;;;;;;;;28.00;26.00;;;25.38;97175.60;;;;116924;1196;25635;-56
2022/04/22 03:17:11;;;;;;;;;30.67;26.33;;;25.41;97184.05;;;;116738;1198;25732;-57
2022/04/22 03:19:40;;;;;;;;;29.00;26.00;;;25.40;97189.42;;;;116808;1196;24835;-56
2022/04/22 03:22:08;;;;;;;;;25.00;22.33;;;25.39;97175.34;;;;116843;1196;25965;-58
2022/04/22 03:24:36;;;;;;;;;29.00;26.67;;;25.40;97166.88;;;;116777;1195;25359;-55
2022/04/22 03:27:06;;;;;;;;;25.50;25.00;;;25.38;97161.70;;;;116864;1197;24938;-56
2022/04/22 03:29:35;;;;;;;;;26.50;25.50;;;25.39;97162.44;;;;116747;1196;26232;-56
2022/04/22 03:32:03;;;;;;;;;29.67;28.00;;;25.37;97166.41;;;;116791;1197;25365;-56
2022/04/22 03:34:32;;;;;;;;;25.00;23.00;;;25.39;97173.26;;;;116815;1197;25889;-55
2022/04/22 03:37:01;;;;;;;;;26.67;24.00;;;25.39;97172.38;;;;116804;1196;25647;-57
2022/04/22 03:39:29;;;;;;;;;28.33;27.33;;;25.38;97181.16;;;;116762;1197;25364;-57
2022/04/22 03:41:58;;;;;;;;;30.00;26.67;;;25.36;97184.36;;;;116698;1197;25547;-58
2022/04/22 03:44:27;;;;;;;;;24.00;22.33;;;25.34;97184.82;;;;117028;1197;24959;-58
2022/04/22 03:46:54;;;;;;;;;29.00;25.33;;;25.45;97177.43;;;;116759;1198;25004;-58
2022/04/22 03:49:22;;;;;;;;;26.50;22.00;;;25.45;97187.66;;;;116878;1197;25697;-57
2022/04/22 03:51:50;;;;;;;;;27.00;25.00;;;25.48;97181.13;;;;116688;1197;25323;-56
2022/04/22 03:54:22;;;;;;;;;30.00;28.50;;;25.44;97174.09;;;;116792;1196;25538;-57
2022/04/22 03:59:36;;;;;;;;;30.50;28.00;;;25.37;97172.55;;;;116776;1196;25088;-56
2022/04/22 04:02:04;;;;;;;;;25.33;24.00;;;25.38;97168.45;;;;116702;1196;24755;-58
2022/04/22 04:04:32;;;;;;;;;33.50;30.00;;;25.35;97166.84;;;;116829;1197;25051;-56
2022/04/22 04:07:00;;;;;;;;;28.00;25.00;;;25.36;97165.19;;;;116806;1197;25476;-58
2022/04/22 04:17:49;;;;;;;;;24.67;24.67;;;25.39;97154.38;;;;116831;1197;25452;-57
2022/04/22 04:23:15;;;;;;;;;31.33;26.67;;;25.43;97158.41;;;;116697;1196;25854;-57
2022/04/22 04:25:47;;;;;;;;;36.67;31.00;;;25.41;97167.34;;;;116758;1196;26053;-57
2022/04/22 04:28:15;;;;;;;;;32.00;30.00;;;25.41;97152.00;;;;116742;1197;25873;-58
2022/04/22 04:30:44;;;;;;;;;37.00;29.00;;;25.40;97155.14;;;;116863;1196;24820;-57
2022/04/22 04:33:12;;;;;;;;;36.33;29.67;;;25.45;97156.77;;;;116740;1197;25340;-58
2022/04/22 04:35:44;;;;;;;;;39.00;30.50;;;25.42;97155.49;;;;116843;1197;25101;-56
2022/04/22 04:38:15;;;;;;;;;39.50;29.50;;;25.43;97146.67;;;;116726;1198;25435;-57
2022/04/22 04:40:44;;;;;;;;;38.00;31.00;;;25.45;97149.77;;;;116731;1198;25035;-57
2022/04/22 04:43:12;;;;;;;;;34.00;30.00;;;25.44;97158.02;;;;116770;1197;24983;-56
2022/04/22 04:45:41;;;;;;;;;41.00;32.67;;;25.42;97148.55;;;;116764;1196;25421;-58
2022/04/22 04:48:09;;;;;;;;;45.50;35.50;;;25.40;97154.45;;;;116820;1196;24835;-57
2022/04/22 04:50:43;;;;;;;;;38.50;28.00;;;25.41;97149.86;;;;116673;1196;25667;-58
2022/04/22 04:53:11;;;;;;;;;34.00;26.33;;;25.38;97141.38;;;;116972;1196;24870;-53
2022/04/22 04:55:40;;;;;;;;;44.50;33.50;;;25.51;97135.65;;;;116874;1197;25412;-56
2022/04/22 04:58:08;;;;;;;;;36.00;30.00;;;25.55;97121.81;;;;116800;1196;25348;-57
2022/04/22 05:00:36;;;;;;;;;43.00;35.00;;;25.57;97126.65;;;;116890;1197;25264;-54
2022/04/22 05:03:05;;;;;;;;;43.33;32.67;;;25.55;97129.07;;;;116974;1197;25502;-51
2022/04/22 05:05:33;;;;;;;;;44.00;32.67;;;25.54;97121.71;;;;116906;1197;24878;-55
2022/04/22 05:08:01;;;;;;;;;49.00;38.00;;;25.55;97133.12;;;;116779;1197;25688;-53
2022/04/22 05:10:31;;;;;;;;;46.67;36.00;;;25.36;97132.11;;;;116862;1197;24791;-56
2022/04/22 05:12:59;;;;;;;;;49.00;38.50;;;25.34;97143.09;;;;116970;1196;25311;-56
2022/04/22 05:15:28;;;;;;;;;41.00;32.00;;;25.44;97146.23;;;;117012;1197;25139;-50
2022/04/22 05:17:58;;;;;;;;;43.50;36.50;;;25.56;97141.42;;;;116817;1197;25669;-54
2022/04/22 05:20:26;;;;;;;;;43.67;36.00;;;25.60;97153.81;;;;116968;1196;24986;-54
2022/04/22 05:22:55;;;;;;;;;46.00;32.00;;;25.68;97142.02;;;;116733;1197;25629;-55
2022/04/22 05:25:23;;;;;;;;;47.00;35.00;;;25.71;97140.60;;;;116866;1197;25356;-56
2022/04/22 05:27:50;;;;;;;;;48.00;38.00;;;25.69;97139.36;;;;116876;1196;24795;-52
2022/04/22 05:33:06;;;;;;;;;52.33;39.33;;;25.70;97131.38;;;;116835;1197;26250;-51
2022/04/22 05:35:34;;;;;;;;;44.67;35.67;;;25.71;97118.24;;;;116929;1196;25068;-53
2022/04/22 05:38:05;;;;;;;;;54.67;42.00;;;25.71;97115.54;;;;116898;1197;25706;-55
2022/04/22 05:40:37;;;;;;;;;59.50;42.00;;;25.73;97114.66;;;;117026;1197;25499;-57
2022/04/22 05:43:08;;;;;;;;;52.00;40.67;;;25.78;97112.88;;;;116813;1197;25469;-56
2022/04/22 05:45:39;;;;;;;;;52.67;39.33;;;25.78;97121.82;;;;116793;1197;25644;-55
2022/04/22 05:48:08;;;;;;;;;45.67;36.67;;;25.73;97117.52;;;;116891;1196;25340;-57
2022/04/22 05:50:35;;;;;;;;;50.50;40.00;;;25.69;97111.78;;;;116958;1197;25366;-55
2022/04/22 05:53:04;;;;;;;;;48.50;41.50;;;25.70;97112.00;;;;116869;1197;25712;-59
2022/04/22 05:55:32;;;;;;;;;54.00;43.00;;;25.70;97097.69;;;;117017;1197;25080;-56
2022/04/22 05:58:00;;;;;;;;;52.00;42.00;;;25.77;97090.95;;;;116848;1197;25478;-54
2022/04/22 06:00:31;;;;;;;;;52.00;41.67;;;25.79;97095.58;;;;116811;1197;25177;-56
2022/04/22 06:03:00;;;;;;;;;45.00;37.00;;;25.83;97100.01;;;;116885;1197;25522;-58
2022/04/22 06:05:28;;;;;;;;;52.00;39.67;;;25.97;97105.19;;;;116922;1198;25001;-58
2022/04/22 06:10:43;;;;;;;;;47.33;38.33;;;26.02;97115.37;;;;116748;1196;25144;-64
2022/04/22 06:13:10;;;;;;;;;46.00;39.00;;;25.98;97111.70;;;;116872;1197;25814;-59
2022/04/22 06:15:38;;;;;;;;;46.33;37.33;;;25.96;97107.64;;;;116846;1198;25426;-62
2022/04/22 06:18:06;;;;;;;;;43.50;35.00;;;25.89;97097.09;;;;116749;1197;25658;-63
2022/04/22 06:20:34;;;;;;;;;50.00;35.00;;;25.81;97098.05;;;;116752;1197;25440;-60
2022/04/22 06:23:02;;;;;;;;;44.00;34.00;;;25.72;97110.64;;;;116750;1197;25149;-66
2022/04/22 06:25:30;;;;;;;;;46.00;35.33;;;25.70;97110.60;;;;116799;1197;24848;-61
2022/04/22 06:27:59;;;;;;;;;54.00;40.00;;;25.67;97113.39;;;;116912;1198;25283;-62
2022/04/22 06:30:27;;;;;;;;;54.33;38.67;;;25.68;97127.39;;;;117013;1196;25260;-62
2022/04/22 06:32:56;;;;;;;;;55.00;40.67;;;25.76;97138.20;;;;116993;1197;25624;-61
2022/04/22 06:35:24;;;;;;;;;37.50;34.50;;;25.82;97137.48;;;;117059;1197;25236;-58
2022/04/22 06:37:53;;;;;;;;;48.00;37.00;;;25.91;97143.00;;;;116823;1196;25071;-57
2022/04/22 06:45:56;;;;;;;;;45.00;35.67;;;25.70;97141.17;;;;116882;1196;25354;-57
2022/04/22 06:48:33;;;;;;;;;55.00;41.00;;;25.65;97132.80;;;;116802;1197;25671;-58
2022/04/22 06:51:12;;;;;;;;;47.33;37.00;;;25.67;97119.29;;;;116770;1197;25592;-57
2022/04/22 06:53:41;;;;;;;;;51.50;38.00;;;25.65;97113.64;;;;116878;1197;25008;-58
2022/04/22 06:56:10;;;;;;;;;41.33;36.33;;;25.61;97109.27;;;;116806;1197;25255;-58
2022/04/22 06:58:38;;;;;;;;;54.50;40.00;;;25.58;97118.05;;;;116830;1197;25245;-58
2022/04/22 07:01:08;;;;;;;;;53.00;39.67;;;25.59;97114.77;;;;116959;1196;25155;-57
2022/04/22 07:03:57;;;;;;;;;49.67;36.67;;;25.67;97115.60;;;;116809;1197;24983;-57
2022/04/22 07:06:26;;;;;;;;;48.33;36.33;;;25.62;97122.09;;;;116769;1197;25421;-58
2022/04/22 07:08:54;;;;;;;;;53.67;39.00;;;25.57;97125.25;;;;116758;1196;25124;-58
2022/04/22 07:11:28;;;;;;;;;50.00;37.00;;;25.58;97125.75;;;;116605;1197;25637;-58
2022/04/22 07:14:00;;;;;;;;;29.33;29.33;;;25.56;97119.06;;;;116641;1196;25185;-58
2022/04/22 07:16:28;;;;;;;;;46.00;35.50;;;25.53;97120.33;;;;116620;1197;24817;-59
2022/04/22 07:18:59;;;;;;;;;46.50;35.00;;;25.51;97126.43;;;;116688;1196;25223;-58
2022/04/22 07:21:28;;;;;;;;;44.50;34.00;;;25.50;97139.61;;;;116801;1197;24921;-58
2022/04/22 07:23:59;;;;;;;;;49.00;37.00;;;25.48;97143.61;;;;116785;1196;25101;-59
2022/04/22 07:26:27;;;;;;;;;44.67;33.67;;;25.45;97143.46;;;;116803;1196;25388;-58
2022/04/22 07:28:57;;;;;;;;;42.50;34.00;;;25.43;97139.45;;;;116804;1197;25082;-56
2022/04/22 07:31:28;;;;;;;;;47.00;32.33;;;25.40;97144.96;;;;116754;1197;25705;-57
2022/04/22 07:33:56;;;;;;;;;47.00;36.00;;;25.39;97148.47;;;;116843;1197;25128;-58
2022/04/22 07:36:24;;;;;;;;;45.50;36.00;;;25.38;97146.80;;;;116491;1198;24958;-57
2022/04/22 07:38:52;;;;;;;;;51.00;38.50;;;25.38;97148.55;;;;116817;1196;25711;-58
2022/04/22 07:41:23;;;;;;;;;39.00;33.00;;;25.36;97145.63;;;;116788;1197;24740;-57
2022/04/22 07:46:47;;;;;;;;;39.50;33.00;;;25.37;97144.89;;;;116607;1197;25622;-58
2022/04/22 07:49:16;;;;;;;;;48.33;33.67;;;25.35;97143.08;;;;116667;1197;24860;-58
2022/04/22 07:51:44;;;;;;;;;45.67;36.00;;;25.34;97146.38;;;;116770;1197;25546;-58
2022/04/22 07:54:12;;;;;;;;;40.00;33.00;;;25.33;97146.01;;;;116809;1197;25574;-58
2022/04/22 07:56:41;;;;;;;;;48.00;36.50;;;25.32;97142.80;;;;116833;1196;25809;-57
2022/04/22 07:59:11;;;;;;;;;45.67;33.67;;;25.32;97141.65;;;;116844;1197;25253;-58
2022/04/22 08:01:38;;;;;;;;;45.00;31.50;;;25.32;97141.94;;;;116868;1197;25156;-57
2022/04/22 08:04:09;;;;;;;;;46.33;32.67;;;25.31;97142.33;;;;116812;1197;25189;-57
2022/04/22 08:06:38;;;;;;;;;47.67;35.00;;;25.31;97135.45;;;;116783;1196;24809;-57
2022/04/22 08:09:06;;;;;;;;;46.00;35.00;;;25.30;97135.98;;;;116747;1197;25668;-58
2022/04/22 08:11:35;;;;;;;;;40.00;31.50;;;25.29;97132.29;;;;116794;1197;24919;-58
2022/04/22 08:14:03;;;;;;;;;45.00;33.00;;;25.26;97132.88;;;;116809;1196;26330;-57
2022/04/22 08:16:31;;;;;;;;;40.00;30.00;;;25.27;97128.59;;;;116756;1196;25022;-57
2022/04/22 08:18:59;;;;;;;;;44.33;36.67;;;25.26;97121.96;;;;116787;1196;25475;-58
2022/04/22 08:21:33;;;;;;;;;45.33;35.67;;;25.27;97119.59;;;;116832;1198;25511;-58
2022/04/22 08:24:02;;;;;;;;;45.00;34.67;;;25.31;97118.60;;;;116788;1195;24816;-57
2022/04/22 08:26:32;;;;;;;;;49.33;36.33;;;25.29;97120.58;;;;116762;1197;25705;-56
2022/04/22 08:29:00;;;;;;;;;45.50;34.50;;;25.27;97124.16;;;;116481;1198;25071;-59
2022/04/22 08:31:28;;;;;;;;;48.00;36.00;;;25.27;97120.63;;;;116764;1196;24988;-57
2022/04/22 08:33:57;;;;;;;;;45.00;36.00;;;25.26;97108.73;;;;116764;1197;24875;-58
2022/04/22 08:36:28;;;;;;;;;42.00;35.00;;;25.25;97095.50;;;;116800;1197;25683;-57
2022/04/22 08:38:59;;;;;;;;;46.33;34.00;;;25.26;97108.85;;;;116795;1197;24902;-58
2022/04/22 08:41:27;;;;;;;;;38.50;32.00;;;25.27;97110.30;;;;116775;1197;26003;-58
2022/04/22 08:43:56;;;;;;;;;45.00;33.00;;;25.28;97108.02;;;;116808;1196;25001;-58
2022/04/22 08:51:59;;;;;;;;;48.67;33.33;;;25.28;97100.88;;;;116539;1198;25428;-58
2022/04/22 08:54:30;;;;;;;;;45.33;34.00;;;25.27;97100.85;;;;116791;1196;25460;-59
2022/04/22 08:56:58;;;;;;;;;40.00;30.33;;;25.30;97095.80;;;;116821;1197;25204;-58
2022/04/22 08:59:26;;;;;;;;;45.00;33.00;;;25.30;97096.41;;;;116807;1197;25080;-58
2022/04/22 09:01:57;;;;;;;;;51.00;34.67;;;25.30;97097.66;;;;116798;1196;24869;-57
2022/04/22 09:04:26;;;;;;;;;38.00;34.00;;;25.30;97092.09;;;;116817;1197;25054;-57
2022/04/22 09:06:55;;;;;;;;;44.00;30.00;;;25.30;97085.13;;;;116790;1197;25098;-58
2022/04/22 09:09:24;;;;;;;;;39.00;28.50;;;25.30;97085.00;;;;116792;1196;25612;-57
2022/04/22 09:12:08;;;;;;;;;49.00;33.00;;;25.31;97080.20;;;;116738;1197;25566;-58
2022/04/22 09:14:36;;;;;;;;;37.50;31.50;;;25.32;97066.88;;;;116859;1198;25052;-58
2022/04/22 09:17:04;;;;;;;;;39.00;29.00;;;25.33;97059.91;;;;116814;1197;25190;-59
2022/04/22 09:19:35;;;;;;;;;43.67;33.00;;;25.31;97052.98;;;;116734;1196;25709;-58
2022/04/22 09:22:04;;;;;;;;;43.00;33.00;;;25.31;97042.15;;;;116841;1197;25200;-58
2022/04/22 09:24:31;;;;;;;;;45.00;33.50;;;25.32;97038.40;;;;116756;1197;25252;-58
2022/04/22 09:27:08;;;;;;;;;43.00;32.00;;;25.30;97035.36;;;;116733;1197;24915;-58
2022/04/22 09:29:53;;;;;;;;;40.50;32.00;;;25.28;97027.51;;;;116811;1197;24819;-58
2022/04/22 09:32:29;;;;;;;;;41.33;31.33;;;25.30;97019.98;;;;116806;1198;25108;-58
2022/04/22 09:35:00;;;;;;;;;40.00;33.00;;;25.29;97034.76;;;;116759;1196;25672;-58
2022/04/22 09:43:00;;;;;;;;;35.00;28.00;;;25.30;97032.69;;;;116734;1197;24736;-58
2022/04/22 09:45:41;;;;;;;;;41.50;33.00;;;25.28;97037.81;;;;116469;1197;25585;-58
2022/04/22 09:48:17;;;;;;;;;40.00;31.00;;;25.29;97036.71;;;;116763;1197;24950;-58
2022/04/22 09:50:52;;;;;;;;;30.50;28.50;;;25.30;97031.98;;;;116799;1197;25530;-58
2022/04/22 09:53:32;;;;;;;;;37.00;32.00;;;25.34;97029.23;;;;116762;1197;25603;-58
2022/04/22 09:56:08;;;;;;;;;35.67;30.33;;;25.36;97030.44;;;;116789;1196;26446;-58
2022/04/22 09:58:36;;;;;;;;;44.00;32.67;;;25.36;97024.09;;;;116774;1196;25382;-57
2022/04/22 10:01:06;;;;;;;;;37.00;29.00;;;25.36;97024.57;;;;116789;1197;25128;-58
2022/04/22 10:03:36;;;;;;;;;40.00;31.67;;;25.36;97024.91;;;;116788;1197;25520;-58
2022/04/22 10:06:05;;;;;;;;;40.67;33.00;;;25.37;97023.41;;;;116799;1197;25556;-58
2022/04/22 10:08:37;;;;;;;;;38.00;30.00;;;25.38;97023.05;;;;116803;1196;25852;-59
2022/04/22 10:11:07;;;;;;;;;41.50;32.00;;;25.38;97016.38;;;;116758;1196;24994;-59
2022/04/22 10:13:46;;;;;;;;;29.00;29.00;;;25.37;97015.04;;;;116789;1196;24926;-58
2022/04/22 10:16:14;;;;;;;;;33.67;28.00;;;25.37;97007.00;;;;116762;1196;25227;-58
2022/04/22 10:18:43;;;;;;;;;34.00;30.00;;;25.38;97007.98;;;;116830;1196;25439;-58
2022/04/22 10:21:11;;;;;;;;;37.33;30.33;;;25.38;97004.55;;;;116798;1197;24859;-59
2022/04/22 10:23:45;;;;;;;;;36.00;30.00;;;25.37;97009.21;;;;116794;1198;24961;-58
2022/04/22 10:26:13;;;;;;;;;37.33;29.00;;;25.38;97010.58;;;;116758;1196;24903;-58
2022/04/22 10:28:44;;;;;;;;;36.50;31.00;;;25.38;97002.46;;;;116540;1198;25237;-58
2022/04/22 10:31:12;;;;;;;;;35.00;30.00;;;25.39;96989.69;;;;116817;1198;25662;-58
2022/04/22 10:33:45;;;;;;;;;34.33;28.67;;;25.41;96979.02;;;;116550;1198;25769;-58
2022/04/22 10:36:17;;;;;;;;;33.00;30.00;;;25.41;96970.60;;;;116774;1197;24781;-59
2022/04/22 10:38:50;;;;;;;;;33.00;29.50;;;25.43;96974.20;;;;116786;1197;25336;-58
2022/04/22 10:41:22;;;;;;;;;37.33;29.67;;;25.45;96972.36;;;;116829;1196;25599;-58
2022/04/22 10:49:39;;;;;;;;;40.00;29.50;;;25.51;96970.96;;;;116774;1196;25601;-58
2022/04/22 10:52:10;;;;;;;;;30.00;27.67;;;25.50;96965.73;;;;116469;1199;25643;-58
2022/04/22 10:54:51;;;;;;;;;27.00;25.00;;;25.52;96963.07;;;;116803;1197;25308;-58
2022/04/22 10:57:21;;;;;;;;;32.00;28.33;;;25.51;96968.14;;;;116465;1198;25003;-58
2022/04/22 11:00:07;;;;;;;;;36.67;28.33;;;25.52;96963.37;;;;116848;1196;25710;-58
2022/04/22 11:02:42;;;;;;;;;33.00;30.00;;;25.54;96949.79;;;;116617;1197;25058;-59
2022/04/22 11:05:18;;;;;;;;;31.33;26.33;;;25.55;96948.26;;;;116571;1196;24783;-58
2022/04/22 11:07:58;;;;;;;;;32.50;29.50;;;25.58;96943.02;;;;116608;1197;25681;-59
2022/04/22 11:10:32;;;;;;;;;33.67;27.33;;;25.61;96937.21;;;;116528;1197;25100;-58
2022/04/22 11:13:00;;;;;;;;;32.00;26.50;;;25.67;96927.70;;;;116783;1196;25498;-58
2022/04/22 11:15:43;;;;;;;;;30.67;24.33;;;25.66;96933.52;;;;116705;1196;25046;-58
2022/04/22 11:18:16;;;;;;;;;38.67;30.33;;;25.65;96929.92;;;;116782;1196;24972;-57
2022/04/22 11:20:47;;;;;;;;;32.00;24.50;;;25.64;96923.55;;;;116750;1196;24950;-58
2022/04/22 11:23:15;;;;;;;;;35.00;30.50;;;25.66;96925.52;;;;116491;1198;25578;-58
2022/04/22 11:25:44;;;;;;;;;30.67;27.33;;;25.67;96919.70;;;;116818;1197;25685;-57
2022/04/22 11:28:13;;;;;;;;;34.00;32.50;;;25.67;96915.84;;;;116757;1196;25245;-57
2022/04/22 11:30:42;;;;;;;;;34.00;28.00;;;25.67;96908.38;;;;116691;1196;25019;-57
2022/04/22 11:33:20;;;;;;;;;32.33;27.67;;;25.68;96907.06;;;;116784;1197;25098;-58
2022/04/22 11:35:50;;;;;;;;;29.33;27.67;;;25.70;96907.23;;;;116763;1197;24833;-58
2022/04/22 11:38:18;;;;;;;;;32.00;27.00;;;25.73;96904.61;;;;116820;1197;25150;-58
2022/04/22 11:40:49;;;;;;;;;31.33;28.67;;;25.74;96896.29;;;;116794;1197;25447;-58
2022/04/22 11:43:18;;;;;;;;;32.67;27.67;;;25.74;96899.69;;;;116761;1197;25287;-57
2022/04/22 11:45:50;;;;;;;;;26.00;22.33;;;25.75;96894.48;;;;116847;1197;25640;-57
2022/04/22 11:48:23;;;;;;;;;31.67;25.67;;;25.76;96894.27;;;;116785;1197;25079;-59
2022/04/22 11:50:55;;;;;;;;;28.00;25.50;;;25.76;96891.68;;;;116812;1195;25311;-58
2022/04/22 11:53:26;;;;;;;;;24.00;23.50;;;25.80;96888.08;;;;116496;1198;24778;-58
2022/04/22 11:55:54;;;;;;;;;27.00;23.00;;;25.79;96888.61;;;;116807;1198;25409;-58
2022/04/22 11:58:27;;;;;;;;;28.33;25.00;;;25.81;96880.48;;;;116738;1196;24988;-58
2022/04/22 12:06:32;;;;;;;;;21.00;20.50;;;25.81;96862.23;;;;116767;1197;24867;-57
2022/04/22 12:09:04;;;;;;;;;26.50;26.50;;;25.81;96852.32;;;;116485;1197;25124;-57
2022/04/22 12:11:43;;;;;;;;;29.00;25.50;;;25.81;96848.58;;;;116801;1197;25101;-57
2022/04/22 12:14:13;;;;;;;;;27.67;22.00;;;25.85;96839.59;;;;116784;1197;25194;-57
2022/04/22 12:16:43;;;;;;;;;35.00;29.00;;;25.86;96831.14;;;;116521;1197;25446;-57
2022/04/22 12:19:11;;;;;;;;;23.00;20.00;;;25.89;96820.40;;;;116865;1197;24911;-57
2022/04/22 12:21:39;;;;;;;;;23.67;22.00;;;25.93;96807.89;;;;116446;1198;25764;-57
2022/04/22 12:24:06;;;;;;;;;32.67;25.00;;;25.92;96806.41;;;;116515;1197;25515;-57
2022/04/22 12:26:47;;;;;;;;;28.33;23.33;;;25.95;96804.83;;;;116784;1197;25437;-57
2022/04/22 12:29:16;;;;;;;;;26.67;22.33;;;25.98;96803.21;;;;116486;1197;25710;-57
2022/04/22 12:31:52;;;;;;;;;25.50;20.50;;;26.00;96806.36;;;;116800;1197;25438;-58
2022/04/22 12:34:31;;;;;;;;;22.00;21.00;;;26.04;96797.98;;;;116798;1196;25233;-56
2022/04/22 12:37:01;;;;;;;;;24.67;17.00;;;26.07;96793.73;;;;116765;1197;25060;-57
2022/04/22 12:39:33;;;;;;;;;23.67;21.33;;;26.08;96792.62;;;;116731;1197;25704;-57
2022/04/22 12:42:02;;;;;;;;;23.67;22.67;;;26.10;96781.39;;;;116803;1196;25270;-57
2022/04/22 12:44:30;;;;;;;;;22.67;21.67;;;26.13;96770.63;;;;116846;1197;25523;-57
2022/04/22 12:52:56;;;;;;;;;21.00;20.00;;;26.20;96755.16;;;;116802;1197;25576;-57
2022/04/22 12:55:24;;;;;;;;;26.67;23.33;;;26.15;96747.73;;;;116757;1197;24978;-57
2022/04/22 12:57:58;;;;;;;;;25.00;21.00;;;26.13;96741.43;;;;116801;1197;25234;-57
2022/04/22 13:00:26;;;;;;;;;27.33;23.67;;;26.13;96736.16;;;;116802;1196;25054;-56
2022/04/22 13:03:10;;;;;;;;;24.75;19.00;;;26.18;96727.55;;;;116745;1196;25275;-57
2022/04/22 13:05:38;;;;;;;;;32.00;25.00;;;26.21;96720.23;;;;116773;1197;25179;-57
2022/04/22 13:08:09;;;;;;;;;21.00;20.00;;;26.24;96720.50;;;;116757;1196;25487;-56
2022/04/22 13:10:38;;;;;;;;;23.00;20.67;;;26.24;96715.00;;;;116833;1197;25885;-58
2022/04/22 13:13:11;;;;;;;;;27.67;23.00;;;26.29;96711.88;;;;116574;1197;25655;-57